createdAt,value
2023-01-17T00:00:58.516Z,3.51
2023-01-17T00:06:32.641Z,3.39
2023-01-17T00:11:35.101Z,3.33
2023-01-17T00:16:37.841Z,3.24
2023-01-17T00:22:06.304Z,3.17
2023-01-17T00:27:14.764Z,3.11
2023-01-17T00:32:17.791Z,3.06
2023-01-17T00:37:22.373Z,3.05
2023-01-17T00:42:24.894Z,3.05
2023-01-17T00:47:45.649Z,3.05
2023-01-17T00:53:07.032Z,3.05
2023-01-17T00:58:29.137Z,3.01
2023-01-17T01:03:50.068Z,2.99
2023-01-17T01:09:10.928Z,2.87
2023-01-17T01:14:34.806Z,2.71
2023-01-17T01:19:56.300Z,2.56
2023-01-17T01:25:23.788Z,2.43
2023-01-17T01:30:45.424Z,2.34
2023-01-17T01:35:55.407Z,2.23
2023-01-17T01:40:57.902Z,2.13
2023-01-17T01:46:00.204Z,2.05
2023-01-17T01:51:09.904Z,1.99
2023-01-17T01:56:15.607Z,1.95
2023-01-17T02:01:19.508Z,1.89
2023-01-17T02:06:34.140Z,1.84
2023-01-17T02:11:39.367Z,1.79
2023-01-17T02:17:03.919Z,1.78
2023-01-17T02:22:48.524Z,1.79
2023-01-17T02:27:54.641Z,1.83
2023-01-17T02:33:17.729Z,1.87
2023-01-17T02:38:34.000Z,1.87
2023-01-17T02:43:37.663Z,1.87
2023-01-17T02:48:40.162Z,1.85
2023-01-17T02:53:48.995Z,1.79
2023-01-17T02:59:14.172Z,1.72
2023-01-17T03:04:42.130Z,1.62
2023-01-17T03:09:47.088Z,1.53
2023-01-17T03:14:53.608Z,1.46
2023-01-17T03:19:56.720Z,1.39
2023-01-17T03:25:16.366Z,1.32
2023-01-17T03:30:23.121Z,1.27
2023-01-17T03:35:28.413Z,1.25
2023-01-17T03:40:37.847Z,1.25
2023-01-17T03:45:40.227Z,1.25
2023-01-17T03:50:43.685Z,1.25
2023-01-17T03:55:46.609Z,1.26
2023-01-17T04:00:49.806Z,1.20
2023-01-17T04:05:53.301Z,1.24
2023-01-17T04:10:55.316Z,1.22
2023-01-17T04:15:59.977Z,1.18
2023-01-17T04:21:02.612Z,1.11
2023-01-17T04:26:05.450Z,1.03
2023-01-17T04:31:07.874Z,0.95
2023-01-17T04:36:10.488Z,0.84
2023-01-17T04:41:12.556Z,0.74
2023-01-17T04:46:15.128Z,0.67
2023-01-17T04:51:18.228Z,0.66
2023-01-17T04:56:20.228Z,0.63
2023-01-17T05:01:22.708Z,0.59
2023-01-17T05:06:25.655Z,0.56
2023-01-17T05:11:30.446Z,0.54
2023-01-17T05:16:32.784Z,0.52
2023-01-17T05:21:35.298Z,0.51
2023-01-17T05:26:38.204Z,0.52
2023-01-17T05:31:40.725Z,0.54
2023-01-17T05:36:42.829Z,0.57
2023-01-17T05:41:45.758Z,0.60
2023-01-17T05:46:49.783Z,0.64
2023-01-17T05:51:54.831Z,0.67
2023-01-17T05:56:57.070Z,0.67
2023-01-17T06:01:59.045Z,0.66
2023-01-17T06:07:03.356Z,0.64
2023-01-17T06:12:06.342Z,0.65
2023-01-17T06:17:08.264Z,0.68
2023-01-17T06:22:10.399Z,0.71
2023-01-17T06:27:15.359Z,0.74
2023-01-17T06:32:17.386Z,0.77
2023-01-17T06:37:19.790Z,0.80
2023-01-17T06:42:22.245Z,0.78
2023-01-17T06:47:24.436Z,0.78
2023-01-17T06:52:30.256Z,0.79
2023-01-17T06:57:33.093Z,0.83
2023-01-17T07:02:37.110Z,0.90
2023-01-17T07:07:39.220Z,0.96
2023-01-17T07:12:46.962Z,1.04
2023-01-17T07:17:49.487Z,1.12
2023-01-17T07:22:52.584Z,1.21
2023-01-17T07:27:57.600Z,1.31
2023-01-17T07:33:00.392Z,1.37
2023-01-17T07:38:03.741Z,1.44
2023-01-17T07:43:17.308Z,1.50
2023-01-17T07:48:21.996Z,1.59
2023-01-17T07:53:30.779Z,1.64
2023-01-17T07:58:34.882Z,1.71
2023-01-17T08:03:40.666Z,1.79
2023-01-17T08:08:43.260Z,1.89
2023-01-17T08:13:48.396Z,1.99
2023-01-17T08:18:56.464Z,2.08
2023-01-17T08:24:15.411Z,2.17
2023-01-17T08:29:19.244Z,2.27
2023-01-17T08:34:23.843Z,2.37
2023-01-17T08:39:31.633Z,2.47
2023-01-17T08:44:34.704Z,2.56
2023-01-17T08:49:44.943Z,2.64
2023-01-17T08:54:53.865Z,2.71
2023-01-17T09:00:14.765Z,2.81
2023-01-17T09:05:17.029Z,2.91
2023-01-17T09:10:19.698Z,3.00
2023-01-17T09:15:26.690Z,3.09
2023-01-17T09:20:30.890Z,3.19
2023-01-17T09:25:33.077Z,3.29
2023-01-17T09:30:38.035Z,3.38
2023-01-17T09:35:40.724Z,3.45
2023-01-17T09:40:47.396Z,3.48
2023-01-17T09:45:50.252Z,3.52
2023-01-17T09:51:04.492Z,3.59
2023-01-17T09:56:31.423Z,3.67
2023-01-17T10:02:31.839Z,3.82
2023-01-17T10:08:04.774Z,4.01
2023-01-17T10:13:27.748Z,4.21
2023-01-17T10:18:55.615Z,4.40
2023-01-17T10:24:28.455Z,4.63
2023-01-17T10:29:36.987Z,4.73
2023-01-17T10:34:58.249Z,4.81
2023-01-17T10:40:38.471Z,4.94
2023-01-17T10:45:56.372Z,5.04
2023-01-17T10:51:43.092Z,5.12
2023-01-17T10:56:53.268Z,5.28
2023-01-17T11:01:55.973Z,5.42
2023-01-17T11:07:30.745Z,5.54
2023-01-17T11:12:45.517Z,5.68
2023-01-17T11:17:53.388Z,5.81
2023-01-17T11:23:05.948Z,5.91
2023-01-17T11:28:20.252Z,5.96
2023-01-17T11:34:13.970Z,6.02
2023-01-17T11:39:27.889Z,6.09
2023-01-17T11:44:35.095Z,6.17
2023-01-17T11:49:38.982Z,6.22
2023-01-17T11:54:47.962Z,6.23
2023-01-17T12:00:38.297Z,6.31
2023-01-17T12:05:43.193Z,6.42
2023-01-17T12:11:17.098Z,6.47
2023-01-17T12:16:53.538Z,6.43
2023-01-17T12:22:04.138Z,6.40
2023-01-17T12:27:34.604Z,6.41
2023-01-17T12:32:59.057Z,6.45
2023-01-17T12:38:09.166Z,6.42
2023-01-17T12:43:23.033Z,6.41
2023-01-17T12:48:30.882Z,6.33
2023-01-17T12:53:59.927Z,6.34
2023-01-17T12:59:27.964Z,6.37
2023-01-17T13:04:46.914Z,6.35
2023-01-17T13:10:26.957Z,6.33
2023-01-17T13:15:39.249Z,6.35
2023-01-17T13:21:05.282Z,6.33
2023-01-17T13:26:20.838Z,6.31
2023-01-17T13:31:50.874Z,6.26
2023-01-17T13:37:23.236Z,6.17
2023-01-17T13:42:42.495Z,6.09
2023-01-17T13:47:45.495Z,5.97
2023-01-17T13:52:50.797Z,5.80
2023-01-17T13:57:53.196Z,5.69
2023-01-17T14:02:55.676Z,5.64
2023-01-17T14:08:02.236Z,5.62
2023-01-17T14:13:06.870Z,5.61
2023-01-17T14:18:34.066Z,5.58
2023-01-17T14:24:15.978Z,5.52
2023-01-17T14:29:58.975Z,5.43
2023-01-17T14:35:02.273Z,5.31
2023-01-17T14:40:18.223Z,5.17
2023-01-17T14:45:26.851Z,5.04
2023-01-17T14:50:35.974Z,4.91
2023-01-17T14:55:39.080Z,4.76
2023-01-17T15:00:45.175Z,4.59
2023-01-17T15:05:52.250Z,4.43
2023-01-17T15:11:05.445Z,4.26
2023-01-17T15:16:24.406Z,4.09
2023-01-17T15:21:29.720Z,3.92
2023-01-17T15:26:34.767Z,3.75
2023-01-17T15:31:48.108Z,3.63
2023-01-17T15:36:51.166Z,3.49
2023-01-17T15:41:59.332Z,3.35
2023-01-17T15:47:02.496Z,3.21
2023-01-17T15:52:10.324Z,3.08
2023-01-17T15:57:24.765Z,2.94
2023-01-17T16:02:29.633Z,2.78
2023-01-17T16:07:36.207Z,2.64
2023-01-17T16:12:39.298Z,2.50
2023-01-17T16:17:48.052Z,2.38
2023-01-17T16:22:50.861Z,2.27
2023-01-17T16:27:53.284Z,2.14
2023-01-17T16:33:00.066Z,2.02
2023-01-17T16:38:15.532Z,1.93
2023-01-17T16:43:18.931Z,1.86
2023-01-17T16:48:21.960Z,1.86
2023-01-17T16:53:26.976Z,1.89
2023-01-17T16:58:28.826Z,1.96
2023-01-17T17:03:30.906Z,2.06
2023-01-17T17:08:37.106Z,2.10
2023-01-17T17:13:40.672Z,2.13
2023-01-17T17:18:44.883Z,2.12
2023-01-17T17:23:50.911Z,2.06
2023-01-17T17:28:54.152Z,2.01
2023-01-17T17:34:00.929Z,1.97
2023-01-17T17:39:04.790Z,1.96
2023-01-17T17:44:06.782Z,1.97
2023-01-17T17:49:09.199Z,1.98
2023-01-17T17:54:13.280Z,2.03
2023-01-17T17:59:18.497Z,2.07
2023-01-17T18:04:21.714Z,2.11
2023-01-17T18:09:24.273Z,2.13
2023-01-17T18:14:26.710Z,2.14
2023-01-17T18:19:28.812Z,2.17
2023-01-17T18:24:31.114Z,2.18
2023-01-17T18:29:33.253Z,2.16
2023-01-17T18:34:35.846Z,2.15
2023-01-17T18:39:37.871Z,2.13
2023-01-17T18:44:39.968Z,2.07
2023-01-17T18:49:43.047Z,2.04
2023-01-17T18:54:46.131Z,2.00
2023-01-17T18:59:48.283Z,1.95
2023-01-17T19:04:50.095Z,1.91
2023-01-17T19:09:51.958Z,1.90
2023-01-17T19:14:53.860Z,1.91
2023-01-17T19:19:57.115Z,1.94
2023-01-17T19:24:59.016Z,1.95
2023-01-17T19:30:01.566Z,1.97
2023-01-17T19:35:03.623Z,1.99
2023-01-17T19:40:08.406Z,1.96
2023-01-17T19:45:14.101Z,1.92
2023-01-17T19:50:18.698Z,1.91
2023-01-17T19:55:25.648Z,1.89
2023-01-17T20:00:30.372Z,1.87
2023-01-17T20:05:34.242Z,1.87
2023-01-17T20:10:36.042Z,1.86
2023-01-17T20:15:37.843Z,1.81
2023-01-17T20:20:56.314Z,1.77
2023-01-17T20:25:59.221Z,1.73
2023-01-17T20:31:10.309Z,1.68
2023-01-17T20:36:16.094Z,1.63
2023-01-17T20:41:25.714Z,1.58
2023-01-17T20:46:33.215Z,1.55
2023-01-17T20:51:37.685Z,1.54
2023-01-17T20:56:39.473Z,1.52
2023-01-17T21:01:43.790Z,1.51
2023-01-17T21:06:46.276Z,1.50
2023-01-17T21:11:48.939Z,1.53
2023-01-17T21:16:50.884Z,1.59
2023-01-17T21:21:53.083Z,1.64
2023-01-17T21:26:55.140Z,1.69
2023-01-17T21:31:57.400Z,1.75
2023-01-17T21:36:59.366Z,1.77
2023-01-17T21:42:01.420Z,1.78
2023-01-17T21:47:03.772Z,1.79
2023-01-17T21:52:05.630Z,1.84
2023-01-17T21:57:26.563Z,1.89
2023-01-17T22:02:28.451Z,1.92
2023-01-17T22:07:30.959Z,1.96
2023-01-17T22:12:33.152Z,1.98
2023-01-17T22:17:38.312Z,2.03
2023-01-17T22:22:40.259Z,2.09
2023-01-17T22:27:42.074Z,2.17
2023-01-17T22:32:43.919Z,2.24
2023-01-17T22:37:45.835Z,2.27
2023-01-17T22:42:48.131Z,2.34
2023-01-17T22:47:50.299Z,2.37
2023-01-17T22:52:52.137Z,2.39
2023-01-17T22:57:54.669Z,2.45
2023-01-17T23:02:56.914Z,2.47
2023-01-17T23:08:02.075Z,2.56
2023-01-17T23:13:04.303Z,2.60
2023-01-17T23:18:24.824Z,2.65
2023-01-17T23:23:26.940Z,2.70
2023-01-17T23:28:28.938Z,2.72
2023-01-17T23:33:31.025Z,2.76
2023-01-17T23:38:37.937Z,2.79
2023-01-17T23:43:40.182Z,2.78
2023-01-17T23:48:41.914Z,2.75
2023-01-17T23:53:43.830Z,2.74
2023-01-17T23:58:45.700Z,2.74
